createdAt,value
2019-03-06T00:00:44.434Z,98.20
2019-03-06T00:03:13.708Z,98.20
2019-03-06T00:05:42.800Z,98.20
2019-03-06T00:08:11.966Z,98.20
2019-03-06T00:10:41.244Z,98.20
2019-03-06T00:13:10.496Z,98.20
2019-03-06T00:15:39.627Z,98.20
2019-03-06T00:18:09.036Z,98.20
2019-03-06T00:20:38.199Z,98.20
2019-03-06T00:23:07.309Z,98.20
2019-03-06T00:25:37.530Z,98.20
2019-03-06T00:28:07.678Z,98.20
2019-03-06T00:30:36.954Z,98.20
2019-03-06T00:33:06.599Z,98.20
2019-03-06T00:35:37.399Z,98.20
2019-03-06T00:38:06.525Z,98.20
2019-03-06T00:40:37.552Z,98.20
2019-03-06T00:43:06.675Z,98.20
2019-03-06T00:45:35.884Z,98.20
2019-03-06T00:48:05.318Z,98.20
2019-03-06T00:50:34.440Z,98.20
2019-03-06T00:53:04.197Z,98.20
2019-03-06T00:55:33.460Z,98.20
2019-03-06T00:58:02.673Z,98.20
2019-03-06T01:00:32.016Z,98.20
2019-03-06T01:03:01.145Z,98.20
2019-03-06T01:05:30.412Z,98.20
2019-03-06T01:07:59.645Z,98.20
2019-03-06T01:10:28.845Z,98.20
2019-03-06T01:12:57.978Z,98.20
2019-03-06T01:15:27.201Z,98.20
2019-03-06T01:17:56.371Z,98.20
2019-03-06T01:20:25.499Z,98.20
2019-03-06T01:22:54.732Z,98.20
2019-03-06T01:25:23.939Z,98.20
2019-03-06T01:27:53.162Z,98.20
2019-03-06T01:30:26.920Z,98.20
2019-03-06T01:32:58.269Z,98.20
2019-03-06T01:35:41.397Z,98.20
2019-03-06T01:38:24.162Z,98.20
2019-03-06T01:41:10.071Z,98.20
2019-03-06T01:43:49.846Z,98.20
2019-03-06T01:46:19.128Z,98.20
2019-03-06T01:48:48.298Z,98.20
2019-03-06T01:51:17.431Z,98.20
2019-03-06T01:53:46.856Z,98.20
2019-03-06T01:56:16.069Z,98.20
2019-03-06T01:58:45.204Z,98.20
2019-03-06T02:01:15.023Z,98.20
2019-03-06T02:03:44.118Z,98.20
2019-03-06T02:06:13.450Z,98.20
2019-03-06T02:08:42.774Z,98.20
2019-03-06T02:11:12.130Z,98.20
2019-03-06T02:13:41.369Z,98.20
2019-03-06T02:16:10.724Z,98.20
2019-03-06T02:18:39.855Z,98.20
2019-03-06T02:21:09.061Z,98.20
2019-03-06T02:23:38.342Z,98.20
2019-03-06T02:26:07.590Z,98.20
2019-03-06T02:28:36.745Z,98.20
2019-03-06T02:31:06.402Z,98.20
2019-03-06T02:33:35.540Z,98.20
2019-03-06T02:36:04.694Z,98.20
2019-03-06T02:38:34.013Z,98.20
2019-03-06T02:41:03.221Z,98.20
2019-03-06T02:43:33.264Z,98.20
2019-03-06T02:46:02.575Z,98.20
2019-03-06T02:48:31.726Z,98.20
2019-03-06T02:51:00.893Z,98.20
2019-03-06T02:53:30.180Z,98.20
2019-03-06T02:56:00.074Z,98.20
2019-03-06T02:58:33.723Z,98.20
2019-03-06T03:01:20.982Z,98.20
2019-03-06T03:04:03.802Z,98.20
2019-03-06T03:06:37.730Z,98.20
2019-03-06T03:09:15.910Z,98.20
2019-03-06T03:11:45.351Z,98.20
2019-03-06T03:14:14.576Z,98.20
2019-03-06T03:16:43.714Z,98.20
2019-03-06T03:19:13.330Z,98.20
2019-03-06T03:21:42.501Z,98.20
2019-03-06T03:24:11.650Z,98.20
2019-03-06T03:26:40.894Z,98.20
2019-03-06T03:29:10.034Z,98.20
2019-03-06T03:31:39.201Z,98.20
2019-03-06T03:34:08.472Z,98.20
2019-03-06T03:36:37.699Z,98.20
2019-03-06T03:39:07.471Z,98.20
2019-03-06T03:41:36.798Z,98.20
2019-03-06T03:44:06.071Z,98.20
2019-03-06T03:46:35.233Z,98.20
2019-03-06T03:49:04.738Z,98.20
2019-03-06T03:51:34.217Z,98.20
2019-03-06T03:54:03.376Z,98.20
2019-03-06T03:56:32.620Z,98.20
2019-03-06T03:59:01.795Z,98.20
2019-03-06T04:01:31.133Z,98.20
2019-03-06T04:04:00.814Z,98.20
2019-03-06T04:06:29.997Z,98.20
2019-03-06T04:08:59.215Z,98.20
2019-03-06T04:11:28.547Z,98.20
2019-03-06T04:13:57.706Z,98.20
2019-03-06T04:16:26.877Z,98.20
2019-03-06T04:18:56.107Z,98.20
2019-03-06T04:21:25.265Z,98.20
2019-03-06T04:23:54.429Z,98.20
2019-03-06T04:26:23.698Z,98.20
2019-03-06T04:28:52.919Z,98.20
2019-03-06T04:31:22.059Z,98.20
2019-03-06T04:33:52.133Z,98.20
2019-03-06T04:36:21.345Z,98.20
2019-03-06T04:38:50.484Z,98.20
2019-03-06T04:41:19.785Z,98.20
2019-03-06T04:43:49.018Z,98.20
2019-03-06T04:46:18.158Z,98.20
2019-03-06T04:48:47.497Z,98.20
2019-03-06T04:51:16.644Z,98.20
2019-03-06T04:53:45.814Z,98.20
2019-03-06T04:56:15.043Z,98.20
2019-03-06T04:58:44.387Z,98.20
2019-03-06T05:01:13.549Z,98.20
2019-03-06T05:03:42.826Z,98.20
2019-03-06T05:06:13.899Z,98.20
2019-03-06T05:08:43.042Z,98.20
2019-03-06T05:11:13.271Z,100.00
2019-03-06T05:13:42.435Z,100.00
2019-03-06T05:16:10.977Z,100.00
2019-03-06T05:18:41.835Z,100.00
2019-03-06T05:21:10.381Z,100.00
2019-03-06T05:23:39.633Z,100.00
2019-03-06T05:26:08.096Z,100.00
2019-03-06T05:28:37.200Z,100.00
2019-03-06T05:31:05.876Z,100.00
2019-03-06T05:33:34.406Z,100.00
2019-03-06T05:36:18.204Z,100.00
2019-03-06T05:39:04.940Z,100.00
2019-03-06T05:41:33.596Z,100.00
2019-03-06T05:44:02.057Z,100.00
2019-03-06T05:46:30.808Z,100.00
2019-03-06T05:48:59.497Z,100.00
2019-03-06T05:51:28.032Z,100.00
2019-03-06T05:53:56.496Z,100.00
2019-03-06T05:56:26.119Z,100.00
2019-03-06T05:58:54.574Z,100.00
2019-03-06T06:01:23.042Z,100.00
2019-03-06T06:03:51.726Z,100.00
2019-03-06T06:06:20.256Z,100.00
2019-03-06T06:08:48.722Z,100.00
2019-03-06T06:11:17.311Z,100.00
2019-03-06T06:13:46.812Z,100.00
2019-03-06T06:16:15.339Z,100.00
2019-03-06T06:18:43.889Z,100.00
2019-03-06T06:21:25.959Z,100.00
2019-03-06T06:23:59.339Z,100.00
2019-03-06T06:26:27.878Z,100.00
2019-03-06T06:28:56.378Z,100.00
2019-03-06T06:31:25.005Z,100.00
2019-03-06T06:33:53.471Z,100.00
2019-03-06T06:36:21.976Z,100.00
2019-03-06T06:38:50.661Z,100.00
2019-03-06T06:41:19.327Z,100.00
2019-03-06T06:43:47.787Z,100.00
2019-03-06T06:46:16.393Z,100.00
2019-03-06T06:48:44.894Z,100.00
2019-03-06T06:51:22.385Z,100.00
2019-03-06T06:53:53.881Z,100.00
2019-03-06T06:56:37.182Z,100.00
2019-03-06T06:59:14.789Z,100.00
2019-03-06T07:01:48.087Z,100.00
2019-03-06T07:04:25.029Z,100.00
2019-03-06T07:07:10.087Z,100.00
2019-03-06T07:09:52.098Z,100.00
2019-03-06T07:12:22.808Z,100.00
2019-03-06T07:14:56.044Z,100.00
2019-03-06T07:17:28.826Z,100.00
2019-03-06T07:20:01.517Z,99.39
2019-03-06T07:22:34.484Z,98.63
2019-03-06T07:25:04.771Z,98.63
2019-03-06T07:27:49.934Z,98.21
2019-03-06T07:30:20.171Z,97.28
2019-03-06T07:32:56.195Z,96.64
2019-03-06T07:35:45.558Z,96.01
2019-03-06T07:38:14.085Z,95.18
2019-03-06T07:40:56.147Z,94.60
2019-03-06T07:43:26.296Z,94.47
2019-03-06T07:46:05.919Z,93.91
2019-03-06T07:48:36.261Z,93.18
2019-03-06T07:51:22.865Z,92.92
2019-03-06T07:54:01.027Z,92.09
2019-03-06T07:56:36.790Z,91.40
2019-03-06T07:59:05.655Z,90.52
2019-03-06T08:01:37.695Z,89.78
2019-03-06T08:04:08.706Z,89.38
2019-03-06T08:06:37.897Z,88.97
2019-03-06T08:09:09.232Z,88.51
2019-03-06T08:11:39.340Z,88.12
2019-03-06T08:14:25.547Z,86.77
2019-03-06T08:16:55.695Z,85.47
2019-03-06T08:19:25.785Z,85.33
2019-03-06T08:22:01.907Z,84.84
2019-03-06T08:24:38.925Z,82.98
2019-03-06T08:27:07.512Z,83.30
2019-03-06T08:29:36.117Z,83.40
2019-03-06T08:32:06.453Z,82.38
2019-03-06T08:34:35.311Z,81.64
2019-03-06T08:37:03.783Z,80.76
2019-03-06T08:39:32.317Z,80.19
2019-03-06T08:42:00.888Z,80.08
2019-03-06T08:44:29.361Z,80.00
2019-03-06T08:47:05.425Z,79.88
2019-03-06T08:49:35.524Z,78.80
2019-03-06T08:52:05.695Z,79.15
2019-03-06T08:54:36.019Z,78.06
2019-03-06T08:57:18.066Z,77.87
2019-03-06T08:59:53.879Z,79.23
2019-03-06T09:02:31.843Z,77.44
2019-03-06T09:05:02.234Z,76.75
2019-03-06T09:07:32.770Z,76.47
2019-03-06T09:10:18.183Z,76.15
2019-03-06T09:12:49.260Z,75.32
2019-03-06T09:15:19.595Z,75.67
2019-03-06T09:18:08.650Z,75.17
2019-03-06T09:20:38.244Z,74.43
2019-03-06T09:23:08.184Z,74.87
2019-03-06T09:25:44.296Z,72.17
2019-03-06T09:28:17.029Z,72.35
2019-03-06T09:30:47.136Z,71.77
2019-03-06T09:33:17.237Z,71.23
2019-03-06T09:36:03.434Z,70.51
2019-03-06T09:38:39.555Z,70.13
2019-03-06T09:41:18.578Z,68.45
2019-03-06T09:43:57.986Z,68.65
2019-03-06T09:46:28.252Z,68.97
2019-03-06T09:49:11.309Z,68.19
2019-03-06T09:51:41.875Z,66.85
2019-03-06T09:54:14.719Z,66.03
2019-03-06T09:57:00.265Z,66.97
2019-03-06T09:59:32.960Z,65.94
2019-03-06T10:02:19.553Z,63.83
2019-03-06T10:05:07.675Z,64.91
2019-03-06T10:07:40.564Z,64.14
2019-03-06T10:10:28.433Z,63.62
2019-03-06T10:13:15.309Z,62.62
2019-03-06T10:15:47.958Z,62.20
2019-03-06T10:18:21.293Z,61.72
2019-03-06T10:20:49.777Z,62.38
2019-03-06T10:23:18.316Z,62.30
2019-03-06T10:25:47.046Z,60.52
2019-03-06T10:28:15.580Z,60.43
2019-03-06T10:30:44.116Z,58.77
2019-03-06T10:33:12.943Z,57.56
2019-03-06T10:35:41.601Z,57.81
2019-03-06T10:38:16.502Z,57.51
2019-03-06T10:40:40.420Z,56.24
2019-03-06T10:43:08.971Z,54.78
2019-03-06T10:45:42.033Z,56.42
2019-03-06T10:48:07.955Z,56.35
2019-03-06T10:50:36.576Z,54.77
2019-03-06T10:53:05.470Z,54.05
2019-03-06T10:55:34.303Z,55.31
2019-03-06T10:58:03.468Z,55.23
2019-03-06T11:00:34.619Z,53.38
2019-03-06T11:03:03.387Z,52.04
2019-03-06T11:05:36.037Z,50.76
2019-03-06T11:08:06.044Z,51.83
2019-03-06T11:10:35.654Z,52.26
2019-03-06T11:13:08.592Z,53.19
2019-03-06T11:15:37.779Z,50.61
2019-03-06T11:18:06.535Z,49.82
2019-03-06T11:20:36.625Z,49.50
2019-03-06T11:23:08.164Z,48.97
2019-03-06T11:25:38.232Z,48.82
2019-03-06T11:28:10.774Z,48.91
2019-03-06T11:30:45.436Z,46.93
2019-03-06T11:33:14.547Z,46.01
2019-03-06T11:35:43.557Z,44.50
2019-03-06T11:38:12.938Z,42.89
2019-03-06T11:40:41.529Z,41.38
2019-03-06T11:43:10.423Z,41.94
2019-03-06T11:45:40.444Z,40.76
2019-03-06T11:48:09.342Z,40.58
2019-03-06T11:50:40.873Z,40.68
2019-03-06T11:53:08.747Z,39.37
2019-03-06T11:55:38.070Z,39.68
2019-03-06T11:58:09.303Z,38.56
2019-03-06T12:00:42.364Z,38.21
2019-03-06T12:03:11.585Z,36.41
2019-03-06T12:05:40.481Z,36.26
2019-03-06T12:08:12.193Z,36.66
2019-03-06T12:10:41.991Z,35.27
2019-03-06T12:13:12.985Z,35.01
2019-03-06T12:15:44.171Z,34.93
2019-03-06T12:18:14.171Z,34.88
2019-03-06T12:20:43.241Z,33.14
2019-03-06T12:23:12.787Z,32.33
2019-03-06T12:25:41.886Z,32.45
2019-03-06T12:28:12.697Z,31.93
2019-03-06T12:30:42.189Z,31.11
2019-03-06T12:33:12.846Z,31.09
2019-03-06T12:35:41.481Z,31.07
2019-03-06T12:38:10.911Z,31.75
2019-03-06T12:40:39.480Z,31.84
2019-03-06T12:43:08.017Z,33.13
2019-03-06T12:45:37.462Z,32.11
2019-03-06T12:48:14.529Z,30.08
2019-03-06T12:50:43.235Z,31.19
2019-03-06T12:53:12.924Z,31.06
2019-03-06T12:55:41.540Z,31.25
2019-03-06T12:58:10.124Z,30.25
2019-03-06T13:00:38.904Z,29.58
2019-03-06T13:03:07.439Z,29.03
2019-03-06T13:05:36.094Z,29.83
2019-03-06T13:08:04.694Z,28.61
2019-03-06T13:10:33.246Z,28.00
2019-03-06T13:13:01.973Z,27.95
2019-03-06T13:15:30.946Z,28.28
2019-03-06T13:17:59.531Z,28.78
2019-03-06T13:20:28.168Z,29.13
2019-03-06T13:22:56.772Z,27.96
2019-03-06T13:25:25.619Z,26.85
2019-03-06T13:27:55.071Z,27.64
2019-03-06T13:30:25.937Z,27.13
2019-03-06T13:33:13.682Z,26.48
2019-03-06T13:35:41.884Z,25.53
2019-03-06T13:38:10.424Z,26.08
2019-03-06T13:40:39.154Z,26.46
2019-03-06T13:43:07.742Z,25.53
2019-03-06T13:45:36.195Z,26.07
2019-03-06T13:48:05.115Z,25.74
2019-03-06T13:50:33.601Z,24.91
2019-03-06T13:53:02.120Z,24.81
2019-03-06T13:55:30.838Z,24.40
2019-03-06T13:57:59.579Z,24.57
2019-03-06T14:00:28.185Z,24.45
2019-03-06T14:02:56.971Z,23.72
2019-03-06T14:05:26.818Z,23.54
2019-03-06T14:07:56.649Z,23.01
2019-03-06T14:10:26.514Z,23.14
2019-03-06T14:12:55.413Z,23.07
2019-03-06T14:15:25.196Z,22.78
2019-03-06T14:17:53.884Z,23.12
2019-03-06T14:20:23.306Z,23.04
2019-03-06T14:22:52.195Z,23.68
2019-03-06T14:25:21.308Z,23.34
2019-03-06T14:27:50.171Z,23.85
2019-03-06T14:30:33.229Z,23.79
2019-03-06T14:33:01.791Z,24.38
2019-03-06T14:35:30.400Z,23.98
2019-03-06T14:37:59.354Z,24.09
2019-03-06T14:40:32.293Z,22.82
2019-03-06T14:43:09.056Z,22.69
2019-03-06T14:45:37.947Z,22.04
2019-03-06T14:48:06.973Z,22.08
2019-03-06T14:50:35.751Z,22.89
2019-03-06T14:53:06.062Z,22.46
2019-03-06T14:55:36.079Z,22.60
2019-03-06T14:58:05.063Z,22.90
2019-03-06T15:00:33.850Z,23.82
2019-03-06T15:03:02.591Z,24.53
2019-03-06T15:05:31.373Z,24.87
2019-03-06T15:07:59.980Z,25.55
2019-03-06T15:10:28.615Z,26.18
2019-03-06T15:12:57.184Z,26.22
2019-03-06T15:15:25.777Z,26.10
2019-03-06T15:17:54.345Z,26.88
2019-03-06T15:20:27.495Z,28.19
2019-03-06T15:22:56.605Z,29.41
2019-03-06T15:25:27.345Z,30.46
2019-03-06T15:27:57.013Z,31.65
2019-03-06T15:30:25.858Z,32.46
2019-03-06T15:32:54.582Z,32.96
2019-03-06T15:35:23.939Z,33.97
2019-03-06T15:37:53.747Z,34.75
2019-03-06T15:40:32.555Z,34.97
2019-03-06T15:43:01.032Z,35.47
2019-03-06T15:45:32.791Z,35.87
2019-03-06T15:48:01.900Z,36.48
2019-03-06T15:50:31.801Z,37.09
2019-03-06T15:53:00.257Z,37.86
2019-03-06T15:55:29.443Z,38.92
2019-03-06T15:57:58.352Z,40.08
2019-03-06T16:00:45.863Z,41.44
2019-03-06T16:03:11.763Z,42.28
2019-03-06T16:05:40.384Z,43.42
2019-03-06T16:08:10.386Z,44.44
2019-03-06T16:10:40.276Z,45.76
2019-03-06T16:13:09.072Z,47.03
2019-03-06T16:15:37.985Z,48.21
2019-03-06T16:18:08.793Z,49.48
2019-03-06T16:20:38.723Z,50.50
2019-03-06T16:23:07.920Z,51.62
2019-03-06T16:25:39.905Z,52.66
2019-03-06T16:28:07.250Z,53.33
2019-03-06T16:30:36.167Z,54.27
2019-03-06T16:33:04.771Z,54.92
2019-03-06T16:35:33.302Z,55.70
2019-03-06T16:38:02.031Z,56.12
2019-03-06T16:40:30.972Z,56.61
2019-03-06T16:42:59.573Z,57.14
2019-03-06T16:45:31.435Z,57.42
2019-03-06T16:48:00.915Z,57.81
2019-03-06T16:50:29.752Z,58.30
2019-03-06T16:52:58.477Z,58.74
2019-03-06T16:55:27.487Z,59.10
2019-03-06T16:57:56.778Z,59.51
2019-03-06T17:00:28.083Z,59.87
2019-03-06T17:02:57.891Z,60.36
2019-03-06T17:05:47.313Z,60.83
2019-03-06T17:08:15.791Z,61.07
2019-03-06T17:10:45.371Z,61.39
2019-03-06T17:13:13.983Z,61.79
2019-03-06T17:15:42.551Z,62.14
2019-03-06T17:18:11.282Z,62.30
2019-03-06T17:20:40.063Z,62.55
2019-03-06T17:23:10.016Z,62.73
2019-03-06T17:25:38.636Z,62.95
2019-03-06T17:28:08.275Z,63.14
2019-03-06T17:30:37.458Z,63.10
2019-03-06T17:33:08.327Z,63.31
2019-03-06T17:35:37.581Z,63.57
2019-03-06T17:38:08.720Z,63.84
2019-03-06T17:40:37.447Z,64.03
2019-03-06T17:43:06.776Z,64.34
2019-03-06T17:45:36.177Z,64.51
2019-03-06T17:48:05.586Z,64.59
2019-03-06T17:50:34.278Z,64.67
2019-03-06T17:53:03.284Z,64.79
2019-03-06T17:55:32.002Z,64.86
2019-03-06T17:58:00.655Z,64.86
2019-03-06T18:00:41.569Z,64.92
2019-03-06T18:03:11.944Z,64.80
2019-03-06T18:05:40.465Z,64.73
2019-03-06T18:08:09.130Z,64.77
2019-03-06T18:10:38.054Z,64.74
2019-03-06T18:13:06.786Z,64.85
2019-03-06T18:15:35.307Z,64.74
2019-03-06T18:18:04.089Z,64.95
2019-03-06T18:20:32.619Z,65.12
2019-03-06T18:23:01.101Z,65.06
2019-03-06T18:25:30.611Z,65.21
2019-03-06T18:27:59.126Z,65.18
2019-03-06T18:30:28.014Z,65.13
2019-03-06T18:32:56.547Z,65.04
2019-03-06T18:35:25.143Z,65.09
2019-03-06T18:37:53.838Z,65.06
2019-03-06T18:40:24.865Z,65.03
2019-03-06T18:42:54.887Z,65.07
2019-03-06T18:45:23.759Z,65.08
2019-03-06T18:47:52.352Z,65.20
2019-03-06T18:50:24.863Z,65.14
2019-03-06T18:52:53.543Z,65.25
2019-03-06T18:55:23.914Z,65.27
2019-03-06T18:57:52.472Z,65.42
2019-03-06T19:00:28.155Z,65.48
2019-03-06T19:02:56.710Z,65.43
2019-03-06T19:05:25.814Z,65.54
2019-03-06T19:07:54.764Z,65.56
2019-03-06T19:10:24.158Z,65.83
2019-03-06T19:12:53.188Z,65.92
2019-03-06T19:15:23.063Z,66.16
2019-03-06T19:17:51.672Z,66.24
2019-03-06T19:20:21.411Z,66.41
2019-03-06T19:22:52.197Z,66.71
2019-03-06T19:25:20.911Z,66.80
2019-03-06T19:27:51.468Z,67.07
2019-03-06T19:30:24.138Z,67.25
2019-03-06T19:32:52.721Z,67.52
2019-03-06T19:35:26.012Z,67.72
2019-03-06T19:37:54.544Z,67.94
2019-03-06T19:40:23.520Z,68.19
2019-03-06T19:42:52.217Z,68.19
2019-03-06T19:45:22.245Z,68.23
2019-03-06T19:47:50.975Z,68.24
2019-03-06T19:50:25.797Z,68.08
2019-03-06T19:52:54.657Z,68.08
2019-03-06T19:55:23.934Z,67.98
2019-03-06T19:57:54.685Z,68.00
2019-03-06T20:00:25.292Z,67.90
2019-03-06T20:02:53.930Z,67.80
2019-03-06T20:05:23.570Z,67.61
2019-03-06T20:07:52.181Z,67.64
2019-03-06T20:10:22.302Z,67.70
2019-03-06T20:12:50.939Z,67.81
2019-03-06T20:15:20.344Z,67.87
2019-03-06T20:17:48.887Z,67.96
2019-03-06T20:20:19.388Z,68.17
2019-03-06T20:22:48.205Z,68.19
2019-03-06T20:25:19.087Z,68.19
2019-03-06T20:27:47.882Z,68.25
2019-03-06T20:30:22.835Z,68.38
2019-03-06T20:32:51.816Z,68.35
2019-03-06T20:35:22.472Z,68.34
2019-03-06T20:37:53.127Z,68.44
2019-03-06T20:40:22.004Z,68.55
2019-03-06T20:42:51.277Z,68.54
2019-03-06T20:45:20.697Z,68.65
2019-03-06T20:47:49.412Z,68.63
2019-03-06T20:50:21.295Z,68.71
2019-03-06T20:52:50.813Z,68.83
2019-03-06T20:55:40.038Z,69.01
2019-03-06T20:58:08.621Z,69.14
2019-03-06T21:00:37.306Z,69.38
2019-03-06T21:03:05.974Z,69.63
2019-03-06T21:05:34.434Z,69.80
2019-03-06T21:08:03.900Z,70.04
2019-03-06T21:10:32.668Z,70.26
2019-03-06T21:13:01.169Z,70.41
2019-03-06T21:15:29.704Z,70.53
2019-03-06T21:17:58.343Z,70.55
2019-03-06T21:20:26.793Z,70.70
2019-03-06T21:22:55.283Z,70.76
2019-03-06T21:25:23.992Z,70.70
2019-03-06T21:27:54.095Z,70.77
2019-03-06T21:30:37.554Z,70.93
2019-03-06T21:33:06.362Z,70.91
2019-03-06T21:35:34.838Z,71.04
2019-03-06T21:38:03.541Z,71.22
2019-03-06T21:40:32.348Z,71.47
2019-03-06T21:43:03.613Z,71.66
2019-03-06T21:45:33.836Z,71.90
2019-03-06T21:48:02.578Z,72.24
2019-03-06T21:50:31.039Z,72.62
2019-03-06T21:52:59.781Z,72.84
2019-03-06T21:55:28.533Z,73.10
2019-03-06T21:57:57.014Z,73.37
2019-03-06T22:00:25.901Z,73.62
2019-03-06T22:02:54.365Z,73.84
2019-03-06T22:05:22.902Z,74.08
2019-03-06T22:07:51.602Z,74.31
2019-03-06T22:10:20.244Z,74.46
2019-03-06T22:12:48.776Z,74.60
2019-03-06T22:15:19.044Z,74.48
2019-03-06T22:17:47.540Z,74.54
2019-03-06T22:20:16.345Z,74.59
2019-03-06T22:22:45.159Z,74.49
2019-03-06T22:25:15.186Z,74.41
2019-03-06T22:27:46.225Z,74.29
2019-03-06T22:30:22.747Z,74.35
2019-03-06T22:32:51.742Z,74.39
2019-03-06T22:35:20.502Z,74.41
2019-03-06T22:37:49.097Z,74.49
2019-03-06T22:40:20.062Z,74.64
2019-03-06T22:42:48.753Z,74.67
2019-03-06T22:45:18.971Z,74.49
2019-03-06T22:47:48.377Z,74.49
2019-03-06T22:50:20.395Z,74.61
2019-03-06T22:52:49.360Z,74.71
2019-03-06T22:55:18.859Z,74.78
2019-03-06T22:57:47.490Z,74.97
2019-03-06T23:00:44.337Z,75.18
2019-03-06T23:03:13.619Z,75.36
2019-03-06T23:05:44.251Z,75.59
2019-03-06T23:08:13.447Z,75.74
2019-03-06T23:10:42.046Z,75.89
2019-03-06T23:13:10.776Z,76.09
2019-03-06T23:15:39.676Z,76.19
2019-03-06T23:18:08.358Z,76.32
2019-03-06T23:20:36.815Z,76.46
2019-03-06T23:23:05.343Z,76.60
2019-03-06T23:25:34.311Z,76.70
2019-03-06T23:28:02.988Z,76.76
2019-03-06T23:30:31.699Z,76.90
2019-03-06T23:33:00.350Z,76.92
2019-03-06T23:35:28.807Z,77.07
2019-03-06T23:37:57.299Z,77.14
2019-03-06T23:40:25.918Z,77.17
2019-03-06T23:42:54.386Z,77.29
2019-03-06T23:45:23.046Z,77.43
2019-03-06T23:47:51.593Z,77.49
2019-03-06T23:50:20.048Z,77.47
2019-03-06T23:52:56.096Z,77.36
2019-03-06T23:55:25.211Z,77.34
2019-03-06T23:57:54.015Z,77.28
